createdAt,value
2023-03-05T00:02:23.341Z,100.00
2023-03-05T00:05:11.300Z,100.00
2023-03-05T00:07:58.936Z,100.00
2023-03-05T00:10:46.526Z,100.00
2023-03-05T00:13:34.940Z,100.00
2023-03-05T00:16:23.663Z,100.00
2023-03-05T00:19:11.789Z,100.00
2023-03-05T00:21:59.526Z,100.00
2023-03-05T00:24:50.240Z,100.00
2023-03-05T00:27:37.879Z,100.00
2023-03-05T00:30:25.538Z,100.00
2023-03-05T00:33:14.320Z,100.00
2023-03-05T00:36:06.770Z,100.00
2023-03-05T00:38:55.328Z,100.00
2023-03-05T00:41:43.363Z,100.00
2023-03-05T00:44:33.802Z,100.00
2023-03-05T00:47:23.996Z,100.00
2023-03-05T00:50:12.052Z,100.00
2023-03-05T00:52:59.870Z,100.00
2023-03-05T00:55:47.821Z,100.00
2023-03-05T00:58:35.664Z,100.00
2023-03-05T01:01:24.058Z,100.00
2023-03-05T01:04:11.711Z,100.00
2023-03-05T01:06:59.522Z,100.00
2023-03-05T01:09:47.156Z,100.00
2023-03-05T01:12:34.856Z,100.00
2023-03-05T01:15:23.916Z,100.00
2023-03-05T01:18:11.599Z,100.00
2023-03-05T01:20:59.249Z,100.00
2023-03-05T01:23:49.960Z,100.00
2023-03-05T01:26:37.758Z,100.00
2023-03-05T01:29:25.564Z,100.00
2023-03-05T01:32:13.519Z,100.00
2023-03-05T01:35:02.549Z,100.00
2023-03-05T01:37:50.320Z,100.00
2023-03-05T01:40:37.930Z,100.00
2023-03-05T01:43:31.008Z,100.00
2023-03-05T01:46:35.196Z,100.00
2023-03-05T01:49:36.586Z,100.00
2023-03-05T01:52:27.782Z,100.00
2023-03-05T01:55:19.737Z,100.00
2023-03-05T01:58:11.876Z,100.00
2023-03-05T02:00:59.639Z,100.00
2023-03-05T02:03:48.712Z,100.00
2023-03-05T02:06:38.884Z,100.00
2023-03-05T02:09:28.972Z,100.00
2023-03-05T02:12:17.244Z,100.00
2023-03-05T02:15:06.603Z,100.00
2023-03-05T02:17:54.228Z,100.00
2023-03-05T02:20:48.931Z,100.00
2023-03-05T02:23:38.432Z,100.00
2023-03-05T02:26:26.098Z,100.00
2023-03-05T02:29:19.204Z,100.00
2023-03-05T02:32:07.254Z,100.00
2023-03-05T02:34:54.939Z,100.00
2023-03-05T02:37:43.465Z,100.00
2023-03-05T02:40:31.103Z,100.00
2023-03-05T02:43:18.950Z,100.00
2023-03-05T02:46:06.988Z,100.00
2023-03-05T02:48:54.817Z,100.00
2023-03-05T02:51:42.496Z,100.00
2023-03-05T02:54:30.514Z,100.00
2023-03-05T02:57:18.981Z,100.00
2023-03-05T03:00:07.330Z,100.00
2023-03-05T03:02:55.272Z,100.00
2023-03-05T03:05:43.290Z,100.00
2023-03-05T03:08:31.017Z,100.00
2023-03-05T03:11:19.035Z,100.00
2023-03-05T03:14:06.752Z,100.00
2023-03-05T03:16:54.468Z,100.00
2023-03-05T03:19:43.156Z,100.00
2023-03-05T03:22:30.849Z,100.00
2023-03-05T03:25:20.733Z,100.00
2023-03-05T03:28:12.664Z,100.00
2023-03-05T03:31:00.343Z,100.00
2023-03-05T03:33:48.652Z,100.00
2023-03-05T03:36:36.326Z,100.00
2023-03-05T03:39:25.693Z,100.00
2023-03-05T03:42:13.322Z,100.00
2023-03-05T03:45:02.601Z,100.00
2023-03-05T03:47:51.937Z,100.00
2023-03-05T03:50:40.850Z,100.00
2023-03-05T03:53:28.409Z,100.00
2023-03-05T03:56:16.202Z,100.00
2023-03-05T03:59:03.896Z,100.00
2023-03-05T06:39:06.269Z,100.00
2023-03-05T06:41:53.933Z,100.00
2023-03-05T06:44:48.397Z,100.00
2023-03-05T06:47:37.193Z,100.00
2023-03-05T06:50:24.914Z,100.00
2023-03-05T06:53:12.539Z,100.00
2023-03-05T06:56:02.265Z,100.00
2023-03-05T06:58:54.755Z,100.00
2023-03-05T07:01:46.257Z,100.00
2023-03-05T07:04:34.054Z,100.00
2023-03-05T07:07:21.696Z,100.00
2023-03-05T07:10:09.782Z,100.00
2023-03-05T07:12:57.733Z,100.00
2023-03-05T07:15:46.548Z,100.00
2023-03-05T07:18:34.310Z,100.00
2023-03-05T07:21:25.033Z,100.00
2023-03-05T07:24:13.856Z,100.00
2023-03-05T07:27:01.543Z,100.00
2023-03-05T07:29:52.214Z,100.00
2023-03-05T07:32:40.218Z,100.00
2023-03-05T07:35:27.908Z,100.00
2023-03-05T07:38:15.717Z,100.00
2023-03-05T07:41:13.728Z,100.00
2023-03-05T07:44:01.440Z,100.00
2023-03-05T07:46:49.071Z,100.00
2023-03-05T07:49:36.841Z,100.00
2023-03-05T07:52:24.620Z,100.00
2023-03-05T07:55:12.438Z,100.00
2023-03-05T07:58:00.245Z,100.00
2023-03-05T08:00:47.984Z,100.00
2023-03-05T08:03:35.753Z,100.00
2023-03-05T08:06:23.540Z,100.00
2023-03-05T08:09:11.156Z,100.00
2023-03-05T08:11:59.689Z,100.00
2023-03-05T08:14:48.190Z,100.00
2023-03-05T08:17:35.885Z,100.00
2023-03-05T08:20:26.848Z,100.00
2023-03-05T08:23:17.597Z,100.00
2023-03-05T08:26:13.175Z,100.00
2023-03-05T08:29:03.567Z,100.00
2023-03-05T08:31:51.851Z,99.83
2023-03-05T08:34:39.574Z,100.00
2023-03-05T08:37:27.470Z,100.00
2023-03-05T08:40:18.191Z,100.00
2023-03-05T08:43:07.573Z,95.36
2023-03-05T08:45:55.557Z,94.00
2023-03-05T08:48:43.681Z,91.08
2023-03-05T08:51:31.413Z,87.04
2023-03-05T08:54:19.074Z,88.62
2023-03-05T08:57:06.812Z,82.22
2023-03-05T08:59:54.540Z,81.61
2023-03-05T09:02:42.322Z,83.35
2023-03-05T09:05:30.085Z,81.97
2023-03-05T09:08:19.470Z,84.21
2023-03-05T09:14:40.939Z,80.81
2023-03-05T09:24:16.224Z,81.20
2023-03-05T09:27:38.913Z,80.12
2023-03-05T09:32:44.238Z,81.17
2023-03-05T09:34:35.125Z,79.18
2023-03-05T09:37:23.809Z,81.37
2023-03-05T09:40:27.457Z,80.77
2023-03-05T09:43:46.405Z,78.07
2023-03-05T09:46:45.096Z,78.00
2023-03-05T09:55:27.085Z,78.57
2023-03-05T09:58:19.092Z,79.93
2023-03-05T10:01:12.358Z,75.87
2023-03-05T10:04:15.253Z,77.14
2023-03-05T10:07:18.176Z,77.80
2023-03-05T10:10:17.696Z,75.38
2023-03-05T10:13:17.064Z,77.33
2023-03-05T10:16:11.634Z,76.71
2023-03-05T10:19:25.345Z,75.68
2023-03-05T10:22:20.994Z,75.05
2023-03-05T10:25:19.336Z,75.37
2023-03-05T10:28:20.430Z,75.07
2023-03-05T10:31:13.947Z,75.19
2023-03-05T10:34:28.080Z,75.30
2023-03-05T10:37:53.539Z,75.39
2023-03-05T10:40:51.509Z,74.62
2023-03-05T10:44:17.185Z,76.29
2023-03-05T10:47:26.075Z,76.49
2023-03-05T10:50:21.130Z,72.02
2023-03-05T10:53:37.378Z,72.60
2023-03-05T10:56:29.790Z,78.36
2023-03-05T10:59:17.369Z,73.49
2023-03-05T11:02:09.727Z,74.40
2023-03-05T11:04:57.637Z,74.18
2023-03-05T11:07:45.382Z,72.16
2023-03-05T11:10:33.178Z,71.56
2023-03-05T11:13:33.328Z,71.80
2023-03-05T11:16:30.185Z,71.65
2023-03-05T11:19:33.951Z,70.23
2023-03-05T11:22:44.072Z,70.21
2023-03-05T11:25:48.113Z,72.82
2023-03-05T11:28:38.933Z,72.23
2023-03-05T11:31:31.688Z,70.89
2023-03-05T11:34:19.496Z,71.05
2023-03-05T11:37:21.029Z,69.30
2023-03-05T11:40:18.214Z,69.76
2023-03-05T11:43:06.034Z,71.93
2023-03-05T11:46:02.807Z,71.36
2023-03-05T11:48:55.303Z,71.82
2023-03-05T11:52:08.426Z,68.46
2023-03-05T11:55:07.341Z,70.19
2023-03-05T11:58:22.556Z,71.48
2023-03-05T12:01:22.329Z,73.22
2023-03-05T12:04:10.118Z,71.48
2023-03-05T12:07:01.901Z,72.20
2023-03-05T12:09:52.466Z,70.44
2023-03-05T12:12:57.034Z,70.74
2023-03-05T12:16:03.485Z,68.08
2023-03-05T12:19:00.842Z,69.31
2023-03-05T12:21:51.354Z,70.39
2023-03-05T12:24:39.608Z,70.70
2023-03-05T12:27:37.182Z,71.55
2023-03-05T12:30:42.702Z,71.43
2023-03-05T12:33:42.032Z,70.02
2023-03-05T12:36:35.470Z,72.39
2023-03-05T12:39:47.920Z,72.66
2023-03-05T12:42:44.277Z,70.38
2023-03-05T12:45:42.716Z,71.80
2023-03-05T12:48:30.784Z,70.29
2023-03-05T12:51:40.880Z,69.26
2023-03-05T12:54:35.587Z,69.46
2023-03-05T12:57:26.781Z,70.81
2023-03-05T13:00:23.698Z,69.82
2023-03-05T13:03:21.250Z,70.78
2023-03-05T13:06:28.411Z,71.87
2023-03-05T13:09:24.680Z,70.16
2023-03-05T13:12:14.458Z,68.27
2023-03-05T13:15:07.984Z,68.45
2023-03-05T13:18:01.389Z,68.48
2023-03-05T13:20:52.377Z,68.14
2023-03-05T13:23:49.321Z,68.22
2023-03-05T13:26:40.129Z,68.29
2023-03-05T13:29:31.570Z,67.05
2023-03-05T13:32:30.798Z,67.62
2023-03-05T13:35:20.990Z,68.84
2023-03-05T13:38:25.593Z,69.12
2023-03-05T13:41:25.989Z,69.44
2023-03-05T13:44:22.243Z,71.03
2023-03-05T13:47:21.111Z,68.98
2023-03-05T13:50:23.709Z,69.40
2023-03-05T13:53:37.872Z,68.11
2023-03-05T13:56:25.506Z,69.58
2023-03-05T13:59:18.965Z,68.20
2023-03-05T14:02:20.766Z,69.06
2023-03-05T14:05:15.715Z,67.77
2023-03-05T14:08:03.900Z,68.26
2023-03-05T14:10:53.160Z,68.32
2023-03-05T14:13:41.400Z,69.08
2023-03-05T14:16:32.963Z,69.80
2023-03-05T14:19:29.734Z,70.75
2023-03-05T14:22:34.274Z,68.38
2023-03-05T14:25:38.935Z,69.73
2023-03-05T14:28:29.512Z,70.20
2023-03-05T14:31:18.905Z,67.74
2023-03-05T14:34:08.255Z,69.56
2023-03-05T14:37:00.252Z,69.38
2023-03-05T14:39:55.624Z,69.29
2023-03-05T14:43:02.414Z,69.70
2023-03-05T14:45:50.235Z,70.03
2023-03-05T14:48:38.016Z,67.74
2023-03-05T14:51:25.934Z,68.65
2023-03-05T14:54:22.811Z,70.24
2023-03-05T14:57:23.228Z,70.19
2023-03-05T15:00:25.965Z,71.46
2023-03-05T15:03:15.763Z,70.31
2023-03-05T15:06:07.408Z,71.52
2023-03-05T15:08:55.148Z,71.48
2023-03-05T15:11:42.740Z,72.99
2023-03-05T15:14:36.789Z,72.07
2023-03-05T15:17:37.673Z,72.35
2023-03-05T15:20:27.972Z,75.08
2023-03-05T15:23:16.312Z,75.02
2023-03-05T15:26:06.577Z,76.04
2023-03-05T15:28:54.292Z,76.10
2023-03-05T15:31:41.958Z,77.21
2023-03-05T15:34:30.098Z,77.86
2023-03-05T15:37:17.779Z,79.11
2023-03-05T15:40:09.127Z,80.50
2023-03-05T15:42:58.461Z,80.76
2023-03-05T15:45:46.424Z,81.02
2023-03-05T15:48:34.112Z,82.55
2023-03-05T15:51:22.065Z,82.36
2023-03-05T15:54:09.904Z,82.25
2023-03-05T15:57:19.756Z,83.87
2023-03-05T16:00:41.257Z,83.92
2023-03-05T16:03:35.116Z,84.59
2023-03-05T16:06:24.501Z,84.65
2023-03-05T16:09:12.771Z,84.90
2023-03-05T16:12:04.443Z,86.49
2023-03-05T16:14:53.038Z,87.66
2023-03-05T16:17:44.075Z,88.58
2023-03-05T16:20:33.016Z,90.72
2023-03-05T16:23:22.179Z,91.35
2023-03-05T16:26:10.857Z,92.42
2023-03-05T16:29:01.078Z,93.39
2023-03-05T16:31:48.744Z,93.60
2023-03-05T16:34:36.507Z,94.66
2023-03-05T16:37:25.354Z,96.29
2023-03-05T16:40:16.425Z,97.93
2023-03-05T16:43:04.495Z,98.86
2023-03-05T16:45:52.260Z,98.43
2023-03-05T16:48:39.972Z,99.67
2023-03-05T16:51:27.779Z,100.00
2023-03-05T16:54:15.536Z,100.00
2023-03-05T16:57:03.426Z,100.00
2023-03-05T16:59:51.879Z,100.00
2023-03-05T17:02:39.693Z,100.00
2023-03-05T17:05:28.399Z,100.00
2023-03-05T17:08:19.334Z,100.00
2023-03-05T17:11:06.967Z,100.00
2023-03-05T17:13:54.740Z,100.00
2023-03-05T17:16:52.664Z,100.00
2023-03-05T17:19:40.605Z,100.00
2023-03-05T17:22:28.223Z,100.00
2023-03-05T17:25:15.962Z,100.00
2023-03-05T17:28:04.083Z,100.00
2023-03-05T17:30:51.914Z,100.00
2023-03-05T17:33:41.810Z,100.00
2023-03-05T17:36:31.015Z,100.00
2023-03-05T17:39:19.327Z,100.00
2023-03-05T17:42:07.157Z,100.00
2023-03-05T17:44:59.393Z,100.00
2023-03-05T17:47:47.066Z,100.00
2023-03-05T17:50:39.029Z,100.00
2023-03-05T17:53:27.211Z,100.00
2023-03-05T17:56:22.276Z,100.00
2023-03-05T17:59:10.056Z,100.00
2023-03-05T18:01:58.979Z,100.00
2023-03-05T18:04:48.173Z,100.00
2023-03-05T18:07:35.939Z,100.00
2023-03-05T18:10:28.881Z,100.00
2023-03-05T18:13:16.422Z,100.00
2023-03-05T18:16:04.421Z,100.00
2023-03-05T18:18:52.768Z,100.00
2023-03-05T18:21:41.494Z,100.00
2023-03-05T18:24:29.071Z,100.00
2023-03-05T18:27:17.041Z,100.00
2023-03-05T18:30:05.191Z,100.00
2023-03-05T18:32:53.102Z,100.00
2023-03-05T18:35:42.183Z,100.00
2023-03-05T18:38:31.694Z,100.00
2023-03-05T18:41:27.713Z,100.00
2023-03-05T18:44:15.930Z,100.00
2023-03-05T18:47:03.480Z,100.00
2023-03-05T18:49:54.517Z,100.00
2023-03-05T18:52:42.934Z,100.00
2023-03-05T18:55:32.845Z,100.00
2023-03-05T18:58:20.461Z,100.00
2023-03-05T19:01:09.588Z,100.00
2023-03-05T19:03:57.608Z,100.00
2023-03-05T19:06:45.257Z,100.00
2023-03-05T19:09:53.835Z,100.00
2023-03-05T19:13:21.851Z,100.00
2023-03-05T19:16:24.277Z,100.00
2023-03-05T19:19:20.656Z,100.00
2023-03-05T19:22:08.704Z,100.00
2023-03-05T19:24:56.580Z,100.00
2023-03-05T19:27:44.253Z,100.00
2023-03-05T19:30:32.126Z,100.00
2023-03-05T19:33:19.929Z,100.00
2023-03-05T19:36:10.176Z,100.00
2023-03-05T19:38:57.828Z,100.00
2023-03-05T19:41:47.943Z,100.00
2023-03-05T19:44:37.730Z,100.00
2023-03-05T19:47:26.291Z,100.00
2023-03-05T19:50:15.217Z,100.00
2023-03-05T19:53:02.964Z,100.00
2023-03-05T19:55:50.634Z,100.00
2023-03-05T19:58:41.866Z,100.00
2023-03-05T20:01:29.609Z,100.00
2023-03-05T20:04:20.891Z,100.00
2023-03-05T20:07:10.638Z,100.00
2023-03-05T20:09:58.495Z,100.00
2023-03-05T20:12:48.427Z,100.00
2023-03-05T20:15:36.281Z,100.00
2023-03-05T20:18:24.718Z,100.00
2023-03-05T20:21:16.262Z,100.00
2023-03-05T20:24:10.860Z,100.00
2023-03-05T20:26:58.805Z,100.00
2023-03-05T20:29:46.614Z,100.00
2023-03-05T20:32:34.438Z,100.00
2023-03-05T20:35:22.127Z,100.00
2023-03-05T20:38:25.520Z,100.00
2023-03-05T20:41:16.946Z,100.00
2023-03-05T20:44:05.556Z,100.00
2023-03-05T20:47:15.608Z,100.00
2023-03-05T20:50:11.655Z,100.00
2023-03-05T20:52:59.553Z,100.00
2023-03-05T20:55:47.632Z,100.00
2023-03-05T20:58:35.261Z,100.00
2023-03-05T21:01:23.054Z,100.00
2023-03-05T21:04:10.716Z,100.00
2023-03-05T21:06:58.569Z,100.00
2023-03-05T21:09:46.311Z,100.00
2023-03-05T21:12:34.174Z,100.00
2023-03-05T21:15:24.902Z,100.00
2023-03-05T21:18:12.705Z,100.00
2023-03-05T21:21:00.488Z,100.00
2023-03-05T21:23:48.251Z,100.00
2023-03-05T21:26:36.215Z,100.00
2023-03-05T21:29:26.894Z,100.00
2023-03-05T21:32:17.356Z,100.00
2023-03-05T21:35:05.577Z,100.00
2023-03-05T21:37:53.180Z,100.00
2023-03-05T21:40:45.634Z,100.00
2023-03-05T21:43:33.752Z,100.00
2023-03-05T21:46:21.575Z,100.00
2023-03-05T21:49:09.323Z,100.00
2023-03-05T21:52:09.457Z,100.00
2023-03-05T21:54:59.310Z,100.00
2023-03-05T21:57:47.168Z,100.00
2023-03-05T22:00:35.701Z,100.00
2023-03-05T22:03:23.455Z,100.00
2023-03-05T22:06:15.765Z,100.00
2023-03-05T22:09:03.856Z,100.00
2023-03-05T22:11:51.460Z,100.00
2023-03-05T22:14:39.223Z,100.00
2023-03-05T22:17:26.834Z,100.00
2023-03-05T22:20:14.776Z,100.00
2023-03-05T22:23:02.563Z,100.00
2023-03-05T22:26:04.823Z,100.00
2023-03-05T22:28:52.426Z,100.00
2023-03-05T22:31:40.858Z,100.00
2023-03-05T22:34:29.170Z,100.00
2023-03-05T22:37:16.982Z,100.00
2023-03-05T22:40:05.012Z,100.00
2023-03-05T22:42:52.861Z,100.00
2023-03-05T22:45:40.875Z,100.00
2023-03-05T22:48:28.577Z,100.00
2023-03-05T22:51:17.430Z,100.00
2023-03-05T22:54:05.396Z,100.00
2023-03-05T22:56:53.106Z,100.00
2023-03-05T22:59:40.945Z,100.00
2023-03-05T23:02:28.525Z,100.00
2023-03-05T23:05:17.075Z,100.00
2023-03-05T23:08:10.189Z,100.00
2023-03-05T23:11:10.780Z,100.00
2023-03-05T23:13:58.420Z,100.00
2023-03-05T23:16:46.302Z,100.00
2023-03-05T23:19:39.727Z,100.00
2023-03-05T23:22:31.127Z,100.00
2023-03-05T23:25:18.967Z,100.00
2023-03-05T23:28:06.782Z,100.00
2023-03-05T23:30:54.439Z,100.00
2023-03-05T23:33:42.421Z,100.00
2023-03-05T23:36:30.025Z,100.00
2023-03-05T23:39:17.746Z,100.00
2023-03-05T23:42:05.507Z,100.00
2023-03-05T23:44:54.969Z,100.00
2023-03-05T23:47:43.126Z,100.00
2023-03-05T23:50:33.782Z,100.00
2023-03-05T23:53:27.400Z,100.00
2023-03-05T23:56:15.337Z,100.00
2023-03-05T23:59:02.971Z,100.00
